sensor_id;sensor_type;location;lat;lon;timestamp;pressure;altitude;pressure_sealevel;temperature;humidity
57644;BME280;43474;46.510;6.686;2023-04-03T00:01:35;96706.66;;;4.99;100.00
57644;BME280;43474;46.510;6.686;2023-04-03T00:04:05;96694.56;;;5.04;100.00
57644;BME280;43474;46.510;6.686;2023-04-03T00:06:31;96698.09;;;5.31;100.00
57644;BME280;43474;46.510;6.686;2023-04-03T00:08:57;96692.25;;;5.36;100.00
57644;BME280;43474;46.510;6.686;2023-04-03T00:11:22;96674.25;;;5.33;100.00
57644;BME280;43474;46.510;6.686;2023-04-03T00:13:48;96686.19;;;5.42;100.00
57644;BME280;43474;46.510;6.686;2023-04-03T00:16:13;96676.53;;;5.42;100.00
57644;BME280;43474;46.510;6.686;2023-04-03T00:18:39;96703.25;;;5.59;100.00
57644;BME280;43474;46.510;6.686;2023-04-03T00:21:06;96699.59;;;5.60;100.00
57644;BME280;43474;46.510;6.686;2023-04-03T00:23:33;96703.69;;;5.69;100.00
57644;BME280;43474;46.510;6.686;2023-04-03T00:25:58;96699.03;;;5.71;100.00
57644;BME280;43474;46.510;6.686;2023-04-03T00:28:24;96689.72;;;5.62;100.00
57644;BME280;43474;46.510;6.686;2023-04-03T00:30:51;96676.38;;;5.64;100.00
57644;BME280;43474;46.510;6.686;2023-04-03T00:33:17;96680.66;;;5.78;100.00
57644;BME280;43474;46.510;6.686;2023-04-03T00:35:43;96673.16;;;5.82;100.00
57644;BME280;43474;46.510;6.686;2023-04-03T00:38:09;96671.75;;;5.79;100.00
57644;BME280;43474;46.510;6.686;2023-04-03T00:40:39;96674.00;;;5.89;100.00
57644;BME280;43474;46.510;6.686;2023-04-03T00:43:21;96670.75;;;5.87;100.00
57644;BME280;43474;46.510;6.686;2023-04-03T00:45:49;96669.94;;;5.86;100.00
57644;BME280;43474;46.510;6.686;2023-04-03T00:48:20;96667.28;;;5.86;100.00
57644;BME280;43474;46.510;6.686;2023-04-03T00:50:46;96657.19;;;5.90;100.00
57644;BME280;43474;46.510;6.686;2023-04-03T00:53:17;96647.91;;;5.87;100.00
57644;BME280;43474;46.510;6.686;2023-04-03T00:55:43;96657.00;;;5.85;100.00
57644;BME280;43474;46.510;6.686;2023-04-03T00:58:10;96651.75;;;5.91;100.00
57644;BME280;43474;46.510;6.686;2023-04-03T01:00:39;96655.56;;;5.69;100.00
57644;BME280;43474;46.510;6.686;2023-04-03T01:03:05;96659.38;;;5.66;100.00
57644;BME280;43474;46.510;6.686;2023-04-03T01:05:31;96662.22;;;5.58;100.00
57644;BME280;43474;46.510;6.686;2023-04-03T01:07:57;96636.09;;;5.43;100.00
57644;BME280;43474;46.510;6.686;2023-04-03T01:10:23;96663.59;;;5.48;100.00
57644;BME280;43474;46.510;6.686;2023-04-03T01:12:51;96663.78;;;5.46;100.00
57644;BME280;43474;46.510;6.686;2023-04-03T01:15:20;96663.97;;;5.38;100.00
57644;BME280;43474;46.510;6.686;2023-04-03T01:17:49;96664.56;;;5.33;100.00
57644;BME280;43474;46.510;6.686;2023-04-03T01:25:34;96651.63;;;4.84;100.00
57644;BME280;43474;46.510;6.686;2023-04-03T01:28:02;96651.53;;;4.71;100.00
57644;BME280;43474;46.510;6.686;2023-04-03T01:30:33;96653.34;;;4.63;100.00
57644;BME280;43474;46.510;6.686;2023-04-03T01:32:59;96644.78;;;4.55;100.00
57644;BME280;43474;46.510;6.686;2023-04-03T01:35:25;96639.06;;;4.79;100.00
57644;BME280;43474;46.510;6.686;2023-04-03T01:37:51;96637.94;;;4.95;100.00
57644;BME280;43474;46.510;6.686;2023-04-03T01:40:16;96612.47;;;4.96;100.00
57644;BME280;43474;46.510;6.686;2023-04-03T01:42:42;96636.59;;;5.12;100.00
57644;BME280;43474;46.510;6.686;2023-04-03T01:45:08;96618.41;;;5.11;100.00
57644;BME280;43474;46.510;6.686;2023-04-03T01:47:34;96632.41;;;5.31;100.00
57644;BME280;43474;46.510;6.686;2023-04-03T01:49:59;96626.00;;;5.47;100.00
57644;BME280;43474;46.510;6.686;2023-04-03T01:52:25;96633.06;;;5.53;100.00
57644;BME280;43474;46.510;6.686;2023-04-03T01:54:51;96629.22;;;5.49;100.00
57644;BME280;43474;46.510;6.686;2023-04-03T01:57:17;96618.06;;;5.34;100.00
57644;BME280;43474;46.510;6.686;2023-04-03T01:59:42;96628.00;;;5.38;100.00
57644;BME280;43474;46.510;6.686;2023-04-03T02:02:08;96630.19;;;5.35;100.00
57644;BME280;43474;46.510;6.686;2023-04-03T02:04:33;96628.59;;;5.34;100.00
57644;BME280;43474;46.510;6.686;2023-04-03T02:06:59;96633.47;;;5.50;100.00
57644;BME280;43474;46.510;6.686;2023-04-03T02:09:25;96622.53;;;5.47;100.00
57644;BME280;43474;46.510;6.686;2023-04-03T02:11:52;96621.56;;;5.61;100.00
57644;BME280;43474;46.510;6.686;2023-04-03T02:14:18;96631.88;;;5.76;100.00
57644;BME280;43474;46.510;6.686;2023-04-03T02:16:44;96612.44;;;5.57;100.00
57644;BME280;43474;46.510;6.686;2023-04-03T02:19:09;96608.63;;;5.79;100.00
57644;BME280;43474;46.510;6.686;2023-04-03T02:21:35;96609.50;;;5.93;100.00
57644;BME280;43474;46.510;6.686;2023-04-03T02:24:00;96618.16;;;5.74;100.00
57644;BME280;43474;46.510;6.686;2023-04-03T02:26:26;96618.94;;;5.74;100.00
57644;BME280;43474;46.510;6.686;2023-04-03T02:28:51;96618.75;;;5.76;100.00
57644;BME280;43474;46.510;6.686;2023-04-03T02:31:17;96593.44;;;5.61;100.00
57644;BME280;43474;46.510;6.686;2023-04-03T02:33:43;96620.97;;;5.79;100.00
57644;BME280;43474;46.510;6.686;2023-04-03T02:36:09;96612.47;;;5.77;100.00
57644;BME280;43474;46.510;6.686;2023-04-03T02:38:35;96611.28;;;5.79;100.00
57644;BME280;43474;46.510;6.686;2023-04-03T02:41:10;96624.22;;;5.87;100.00
57644;BME280;43474;46.510;6.686;2023-04-03T02:43:37;96614.09;;;5.91;100.00
57644;BME280;43474;46.510;6.686;2023-04-03T02:46:03;96607.03;;;5.91;100.00
57644;BME280;43474;46.510;6.686;2023-04-03T02:48:29;96616.72;;;5.84;100.00
57644;BME280;43474;46.510;6.686;2023-04-03T02:50:55;96618.56;;;5.84;100.00
57644;BME280;43474;46.510;6.686;2023-04-03T02:53:20;96595.50;;;5.79;100.00
57644;BME280;43474;46.510;6.686;2023-04-03T02:55:46;96604.38;;;5.85;100.00
57644;BME280;43474;46.510;6.686;2023-04-03T02:58:11;96608.06;;;5.97;100.00
57644;BME280;43474;46.510;6.686;2023-04-03T03:00:37;96614.31;;;5.89;100.00
57644;BME280;43474;46.510;6.686;2023-04-03T03:03:04;96600.94;;;5.91;100.00
57644;BME280;43474;46.510;6.686;2023-04-03T03:05:29;96599.53;;;5.88;100.00
57644;BME280;43474;46.510;6.686;2023-04-03T03:07:55;96611.69;;;5.83;100.00
57644;BME280;43474;46.510;6.686;2023-04-03T03:10:21;96620.34;;;5.77;100.00
57644;BME280;43474;46.510;6.686;2023-04-03T03:12:47;96618.94;;;5.74;100.00
57644;BME280;43474;46.510;6.686;2023-04-03T03:15:12;96602.16;;;5.68;100.00
57644;BME280;43474;46.510;6.686;2023-04-03T03:17:38;96603.38;;;5.79;100.00
57644;BME280;43474;46.510;6.686;2023-04-03T03:20:05;96613.28;;;5.90;100.00
57644;BME280;43474;46.510;6.686;2023-04-03T03:22:31;96602.41;;;5.93;100.00
57644;BME280;43474;46.510;6.686;2023-04-03T03:24:57;96579.75;;;5.92;100.00
57644;BME280;43474;46.510;6.686;2023-04-03T03:27:22;96587.22;;;5.95;100.00
57644;BME280;43474;46.510;6.686;2023-04-03T03:29:49;96596.91;;;6.02;100.00
57644;BME280;43474;46.510;6.686;2023-04-03T03:32:14;96595.31;;;5.94;100.00
57644;BME280;43474;46.510;6.686;2023-04-03T03:34:40;96595.91;;;5.89;100.00
57644;BME280;43474;46.510;6.686;2023-04-03T03:37:06;96590.63;;;5.89;100.00
57644;BME280;43474;46.510;6.686;2023-04-03T03:39:31;96585.59;;;5.88;100.00
57644;BME280;43474;46.510;6.686;2023-04-03T03:41:57;96589.44;;;5.79;100.00
57644;BME280;43474;46.510;6.686;2023-04-03T03:44:22;96593.47;;;5.75;100.00
57644;BME280;43474;46.510;6.686;2023-04-03T03:46:48;96588.19;;;5.81;100.00
57644;BME280;43474;46.510;6.686;2023-04-03T03:49:14;96595.47;;;5.86;100.00
57644;BME280;43474;46.510;6.686;2023-04-03T03:51:40;96593.47;;;5.88;100.00
57644;BME280;43474;46.510;6.686;2023-04-03T03:54:06;96579.31;;;5.89;100.00
57644;BME280;43474;46.510;6.686;2023-04-03T03:56:32;96590.44;;;5.84;100.00
57644;BME280;43474;46.510;6.686;2023-04-03T03:58:57;96585.56;;;5.81;100.00
57644;BME280;43474;46.510;6.686;2023-04-03T04:01:23;96586.78;;;5.85;100.00
57644;BME280;43474;46.510;6.686;2023-04-03T04:03:50;96596.53;;;5.91;100.00
57644;BME280;43474;46.510;6.686;2023-04-03T04:06:15;96589.81;;;5.89;100.00
57644;BME280;43474;46.510;6.686;2023-04-03T04:08:41;96578.47;;;5.82;100.00
57644;BME280;43474;46.510;6.686;2023-04-03T04:11:07;96587.84;;;5.98;100.00
57644;BME280;43474;46.510;6.686;2023-04-03T04:13:34;96582.56;;;6.04;100.00
57644;BME280;43474;46.510;6.686;2023-04-03T04:15:59;96595.13;;;6.09;100.00
57644;BME280;43474;46.510;6.686;2023-04-03T04:18:25;96578.72;;;6.13;100.00
57644;BME280;43474;46.510;6.686;2023-04-03T04:20:51;96588.41;;;6.06;100.00
57644;BME280;43474;46.510;6.686;2023-04-03T04:23:17;96574.84;;;6.16;100.00
57644;BME280;43474;46.510;6.686;2023-04-03T04:25:47;96577.50;;;6.09;100.00
57644;BME280;43474;46.510;6.686;2023-04-03T04:28:13;96583.16;;;6.06;100.00
57644;BME280;43474;46.510;6.686;2023-04-03T04:30:38;96576.09;;;6.07;100.00
57644;BME280;43474;46.510;6.686;2023-04-03T04:33:04;96582.56;;;6.04;100.00
57644;BME280;43474;46.510;6.686;2023-04-03T04:35:30;96578.91;;;6.05;100.00
57644;BME280;43474;46.510;6.686;2023-04-03T04:37:56;96574.88;;;6.03;100.00
57644;BME280;43474;46.510;6.686;2023-04-03T04:40:21;96574.28;;;6.07;100.00
57644;BME280;43474;46.510;6.686;2023-04-03T04:42:47;96566.38;;;6.01;100.00
57644;BME280;43474;46.510;6.686;2023-04-03T04:45:13;96564.78;;;5.93;100.00
57644;BME280;43474;46.510;6.686;2023-04-03T04:47:40;96568.19;;;5.80;100.00
57644;BME280;43474;46.510;6.686;2023-04-03T04:50:06;96584.16;;;5.85;100.00
57644;BME280;43474;46.510;6.686;2023-04-03T04:52:32;96571.03;;;5.72;100.00
57644;BME280;43474;46.510;6.686;2023-04-03T04:54:58;96573.25;;;5.68;100.00
57644;BME280;43474;46.510;6.686;2023-04-03T04:57:24;96584.56;;;5.76;100.00
57644;BME280;43474;46.510;6.686;2023-04-03T04:59:49;96575.88;;;5.68;100.00
57644;BME280;43474;46.510;6.686;2023-04-03T05:02:15;96583.34;;;5.85;100.00
57644;BME280;43474;46.510;6.686;2023-04-03T05:04:40;96581.34;;;5.87;100.00
57644;BME280;43474;46.510;6.686;2023-04-03T05:07:06;96576.06;;;5.74;100.00
57644;BME280;43474;46.510;6.686;2023-04-03T05:09:31;96583.97;;;5.74;100.00
57644;BME280;43474;46.510;6.686;2023-04-03T05:11:57;96588.81;;;5.77;100.00
57644;BME280;43474;46.510;6.686;2023-04-03T05:14:23;96592.03;;;5.65;100.00
57644;BME280;43474;46.510;6.686;2023-04-03T05:16:49;96577.47;;;5.56;100.00
57644;BME280;43474;46.510;6.686;2023-04-03T05:19:18;96589.63;;;5.57;100.00
57644;BME280;43474;46.510;6.686;2023-04-03T05:21:44;96592.03;;;5.65;100.00
57644;BME280;43474;46.510;6.686;2023-04-03T05:24:09;96590.00;;;5.61;100.00
57644;BME280;43474;46.510;6.686;2023-04-03T05:26:35;96584.34;;;5.57;100.00
57644;BME280;43474;46.510;6.686;2023-04-03T05:29:01;96594.88;;;5.57;100.00
57644;BME280;43474;46.510;6.686;2023-04-03T05:31:26;96599.28;;;5.50;100.00
57644;BME280;43474;46.510;6.686;2023-04-03T05:33:55;96609.59;;;5.52;100.00
57644;BME280;43474;46.510;6.686;2023-04-03T05:36:21;96605.78;;;5.54;100.00
57644;BME280;43474;46.510;6.686;2023-04-03T05:38:47;96588.97;;;5.35;100.00
57644;BME280;43474;46.510;6.686;2023-04-03T05:41:13;96599.72;;;5.47;100.00
57644;BME280;43474;46.510;6.686;2023-04-03T05:43:39;96592.59;;;5.34;100.00
57644;BME280;43474;46.510;6.686;2023-04-03T05:46:16;96605.56;;;5.49;100.00
57644;BME280;43474;46.510;6.686;2023-04-03T05:48:44;96583.69;;;5.35;100.00
57644;BME280;43474;46.510;6.686;2023-04-03T05:51:15;96580.47;;;5.40;100.00
57644;BME280;43474;46.510;6.686;2023-04-03T05:53:42;96572.78;;;5.32;100.00
57644;BME280;43474;46.510;6.686;2023-04-03T05:56:09;96580.91;;;5.43;100.00
57644;BME280;43474;46.510;6.686;2023-04-03T05:58:34;96589.00;;;5.49;100.00
57644;BME280;43474;46.510;6.686;2023-04-03T06:01:00;96590.19;;;5.46;100.00
57644;BME280;43474;46.510;6.686;2023-04-03T06:03:26;96586.16;;;5.43;100.00
57644;BME280;43474;46.510;6.686;2023-04-03T06:05:52;96583.09;;;5.40;100.00
57644;BME280;43474;46.510;6.686;2023-04-03T06:08:18;96590.19;;;5.39;100.00
57644;BME280;43474;46.510;6.686;2023-04-03T06:10:44;96587.94;;;5.36;100.00
57644;BME280;43474;46.510;6.686;2023-04-03T06:13:09;96592.19;;;5.31;100.00
57644;BME280;43474;46.510;6.686;2023-04-03T06:15:36;96610.19;;;5.34;100.00
57644;BME280;43474;46.510;6.686;2023-04-03T06:18:02;96598.50;;;5.43;100.00
57644;BME280;43474;46.510;6.686;2023-04-03T06:20:27;96596.03;;;5.35;100.00
57644;BME280;43474;46.510;6.686;2023-04-03T06:22:53;96592.59;;;5.41;100.00
57644;BME280;43474;46.510;6.686;2023-04-03T06:25:18;96604.13;;;5.33;100.00
57644;BME280;43474;46.510;6.686;2023-04-03T06:27:45;96598.47;;;5.36;100.00
57644;BME280;43474;46.510;6.686;2023-04-03T06:30:11;96607.34;;;5.42;100.00
57644;BME280;43474;46.510;6.686;2023-04-03T06:32:37;96600.09;;;5.37;100.00
57644;BME280;43474;46.510;6.686;2023-04-03T06:35:04;96599.28;;;5.43;100.00
57644;BME280;43474;46.510;6.686;2023-04-03T06:37:29;96598.28;;;5.51;100.00
57644;BME280;43474;46.510;6.686;2023-04-03T06:39:56;96606.19;;;5.58;100.00
57644;BME280;43474;46.510;6.686;2023-04-03T06:42:22;96603.56;;;5.64;100.00
57644;BME280;43474;46.510;6.686;2023-04-03T06:44:48;96601.34;;;5.68;100.00
57644;BME280;43474;46.510;6.686;2023-04-03T06:47:14;96615.94;;;5.77;100.00
57644;BME280;43474;46.510;6.686;2023-04-03T06:49:41;96601.16;;;5.69;100.00
57644;BME280;43474;46.510;6.686;2023-04-03T06:52:07;96617.13;;;5.81;100.00
57644;BME280;43474;46.510;6.686;2023-04-03T06:54:33;96607.81;;;5.85;100.00
57644;BME280;43474;46.510;6.686;2023-04-03T06:56:58;96605.44;;;5.97;100.00
57644;BME280;43474;46.510;6.686;2023-04-03T06:59:24;96622.59;;;6.39;100.00
57644;BME280;43474;46.510;6.686;2023-04-03T07:01:50;96616.78;;;8.03;100.00
57644;BME280;43474;46.510;6.686;2023-04-03T07:04:16;96610.25;;;8.93;100.00
57644;BME280;43474;46.510;6.686;2023-04-03T07:06:41;96610.97;;;9.18;100.00
57644;BME280;43474;46.510;6.686;2023-04-03T07:09:09;96625.03;;;7.50;100.00
57644;BME280;43474;46.510;6.686;2023-04-03T07:11:35;96613.34;;;6.95;100.00
57644;BME280;43474;46.510;6.686;2023-04-03T07:14:02;96621.94;;;6.77;100.00
57644;BME280;43474;46.510;6.686;2023-04-03T07:16:27;96640.16;;;6.79;100.00
57644;BME280;43474;46.510;6.686;2023-04-03T07:18:55;96614.69;;;7.11;100.00
57644;BME280;43474;46.510;6.686;2023-04-03T07:21:21;96622.97;;;8.66;100.00
57644;BME280;43474;46.510;6.686;2023-04-03T07:23:46;96608.25;;;9.25;100.00
57644;BME280;43474;46.510;6.686;2023-04-03T07:26:12;96609.88;;;9.56;100.00
57644;BME280;43474;46.510;6.686;2023-04-03T07:28:38;96635.38;;;9.02;100.00
57644;BME280;43474;46.510;6.686;2023-04-03T07:31:07;96610.13;;;9.66;100.00
57644;BME280;43474;46.510;6.686;2023-04-03T07:33:34;96635.16;;;10.71;100.00
57644;BME280;43474;46.510;6.686;2023-04-03T07:36:01;96634.53;;;11.44;100.00
57644;BME280;43474;46.510;6.686;2023-04-03T07:38:27;96624.38;;;11.01;100.00
57644;BME280;43474;46.510;6.686;2023-04-03T07:40:52;96615.00;;;10.70;100.00
57644;BME280;43474;46.510;6.686;2023-04-03T07:43:19;96602.34;;;11.12;97.61
57644;BME280;43474;46.510;6.686;2023-04-03T07:45:46;96629.63;;;11.81;98.83
57644;BME280;43474;46.510;6.686;2023-04-03T07:48:16;96651.38;;;11.50;95.83
57644;BME280;43474;46.510;6.686;2023-04-03T07:50:43;96642.97;;;11.70;96.89
57644;BME280;43474;46.510;6.686;2023-04-03T07:53:09;96644.34;;;11.72;96.35
57644;BME280;43474;46.510;6.686;2023-04-03T07:55:35;96648.22;;;11.24;95.94
57644;BME280;43474;46.510;6.686;2023-04-03T07:58:13;96637.56;;;11.64;95.60
57644;BME280;43474;46.510;6.686;2023-04-03T08:00:40;96622.84;;;12.02;91.70
57644;BME280;43474;46.510;6.686;2023-04-03T08:03:07;96640.63;;;11.73;94.52
57644;BME280;43474;46.510;6.686;2023-04-03T08:05:37;96637.91;;;11.39;95.35
57644;BME280;43474;46.510;6.686;2023-04-03T08:08:04;96642.63;;;11.66;93.12
57644;BME280;43474;46.510;6.686;2023-04-03T08:10:30;96640.75;;;12.40;93.21
57644;BME280;43474;46.510;6.686;2023-04-03T08:12:56;96626.97;;;11.53;91.08
57644;BME280;43474;46.510;6.686;2023-04-03T08:15:21;96637.00;;;11.34;92.47
57644;BME280;43474;46.510;6.686;2023-04-03T08:17:47;96633.50;;;11.45;93.94
57644;BME280;43474;46.510;6.686;2023-04-03T08:20:13;96629.53;;;11.76;93.25
57644;BME280;43474;46.510;6.686;2023-04-03T08:22:39;96631.31;;;11.42;90.17
57644;BME280;43474;46.510;6.686;2023-04-03T08:25:05;96614.25;;;12.12;91.82
57644;BME280;43474;46.510;6.686;2023-04-03T08:27:31;96613.28;;;11.73;90.09
57644;BME280;43474;46.510;6.686;2023-04-03T08:29:56;96602.25;;;11.35;90.46
57644;BME280;43474;46.510;6.686;2023-04-03T08:32:22;96625.31;;;10.83;94.11
57644;BME280;43474;46.510;6.686;2023-04-03T08:34:48;96618.34;;;11.17;94.06
57644;BME280;43474;46.510;6.686;2023-04-03T08:37:14;96623.19;;;11.20;94.45
57644;BME280;43474;46.510;6.686;2023-04-03T08:39:42;96642.84;;;10.96;93.88
57644;BME280;43474;46.510;6.686;2023-04-03T08:42:30;96633.19;;;11.58;93.82
57644;BME280;43474;46.510;6.686;2023-04-03T08:45:10;96639.50;;;11.41;94.10
57644;BME280;43474;46.510;6.686;2023-04-03T08:47:42;96638.25;;;11.31;93.00
57644;BME280;43474;46.510;6.686;2023-04-03T08:50:17;96636.94;;;10.94;92.64
57644;BME280;43474;46.510;6.686;2023-04-03T08:52:49;96642.88;;;11.64;94.12
57644;BME280;43474;46.510;6.686;2023-04-03T08:58:15;96643.28;;;11.73;93.68
57644;BME280;43474;46.510;6.686;2023-04-03T09:00:48;96651.84;;;11.75;89.19
57644;BME280;43474;46.510;6.686;2023-04-03T09:03:19;96651.69;;;12.27;86.20
57644;BME280;43474;46.510;6.686;2023-04-03T09:08:32;96658.69;;;12.16;85.42
57644;BME280;43474;46.510;6.686;2023-04-03T09:11:12;96635.44;;;12.24;88.20
57644;BME280;43474;46.510;6.686;2023-04-03T09:13:59;96662.16;;;11.60;90.58
57644;BME280;43474;46.510;6.686;2023-04-03T09:17:00;96651.28;;;11.33;86.77
57644;BME280;43474;46.510;6.686;2023-04-03T09:22:18;96661.66;;;11.75;90.19
57644;BME280;43474;46.510;6.686;2023-04-03T09:24:48;96635.38;;;11.61;89.95
57644;BME280;43474;46.510;6.686;2023-04-03T09:27:15;96629.84;;;11.92;86.00
57644;BME280;43474;46.510;6.686;2023-04-03T09:29:43;96629.53;;;12.05;88.06
57644;BME280;43474;46.510;6.686;2023-04-03T09:32:27;96638.47;;;11.70;87.85
57644;BME280;43474;46.510;6.686;2023-04-03T09:35:00;96626.00;;;11.71;88.57
57644;BME280;43474;46.510;6.686;2023-04-03T09:40:05;96636.97;;;12.53;87.67
57644;BME280;43474;46.510;6.686;2023-04-03T09:42:31;96631.38;;;12.38;86.58
57644;BME280;43474;46.510;6.686;2023-04-03T09:45:00;96641.44;;;12.70;85.40
57644;BME280;43474;46.510;6.686;2023-04-03T09:47:26;96639.91;;;12.74;88.32
57644;BME280;43474;46.510;6.686;2023-04-03T09:52:38;96630.19;;;12.46;82.75
57644;BME280;43474;46.510;6.686;2023-04-03T09:57:48;96648.63;;;12.35;85.30
57644;BME280;43474;46.510;6.686;2023-04-03T10:00:27;96660.53;;;12.66;83.05
57644;BME280;43474;46.510;6.686;2023-04-03T10:02:55;96650.56;;;12.40;81.39
57644;BME280;43474;46.510;6.686;2023-04-03T10:05:37;96645.09;;;12.30;83.76
57644;BME280;43474;46.510;6.686;2023-04-03T10:10:40;96651.84;;;12.04;81.12
57644;BME280;43474;46.510;6.686;2023-04-03T10:15:43;96656.28;;;12.15;80.10
57644;BME280;43474;46.510;6.686;2023-04-03T10:21:29;96637.91;;;12.64;76.39
57644;BME280;43474;46.510;6.686;2023-04-03T10:24:10;96621.13;;;12.80;78.70
57644;BME280;43474;46.510;6.686;2023-04-03T10:27:11;96639.00;;;13.07;74.48
57644;BME280;43474;46.510;6.686;2023-04-03T10:35:41;96631.41;;;13.37;76.21
57644;BME280;43474;46.510;6.686;2023-04-03T10:38:21;96633.47;;;13.30;75.41
57644;BME280;43474;46.510;6.686;2023-04-03T10:41:02;96643.22;;;13.03;75.46
57644;BME280;43474;46.510;6.686;2023-04-03T10:43:44;96636.88;;;12.48;75.90
57644;BME280;43474;46.510;6.686;2023-04-03T10:46:21;96629.66;;;13.43;74.90
57644;BME280;43474;46.510;6.686;2023-04-03T10:51:45;96628.41;;;13.29;70.27
57644;BME280;43474;46.510;6.686;2023-04-03T10:54:17;96640.81;;;13.67;71.66
57644;BME280;43474;46.510;6.686;2023-04-03T10:56:56;96638.50;;;13.76;69.45
57644;BME280;43474;46.510;6.686;2023-04-03T10:59:28;96648.75;;;13.62;72.03
57644;BME280;43474;46.510;6.686;2023-04-03T11:02:07;96628.22;;;13.13;72.24
57644;BME280;43474;46.510;6.686;2023-04-03T11:04:39;96644.41;;;13.12;74.39
57644;BME280;43474;46.510;6.686;2023-04-03T11:07:20;96637.66;;;13.04;73.72
57644;BME280;43474;46.510;6.686;2023-04-03T11:09:50;96624.16;;;12.89;69.25
57644;BME280;43474;46.510;6.686;2023-04-03T11:12:23;96614.81;;;12.86;72.46
57644;BME280;43474;46.510;6.686;2023-04-03T11:14:51;96615.47;;;12.77;71.27
57644;BME280;43474;46.510;6.686;2023-04-03T11:17:21;96625.75;;;12.90;72.62
57644;BME280;43474;46.510;6.686;2023-04-03T11:20:14;96629.22;;;12.52;68.83
57644;BME280;43474;46.510;6.686;2023-04-03T11:22:53;96620.63;;;13.05;67.66
57644;BME280;43474;46.510;6.686;2023-04-03T11:25:25;96614.81;;;12.86;67.01
57644;BME280;43474;46.510;6.686;2023-04-03T11:35:37;96608.16;;;12.67;73.79
57644;BME280;43474;46.510;6.686;2023-04-03T11:38:17;96595.06;;;12.82;67.95
57644;BME280;43474;46.510;6.686;2023-04-03T11:40:46;96595.13;;;12.87;73.90
57644;BME280;43474;46.510;6.686;2023-04-03T11:45:54;96586.25;;;12.99;74.88
57644;BME280;43474;46.510;6.686;2023-04-03T11:53:43;96597.72;;;12.82;72.61
57644;BME280;43474;46.510;6.686;2023-04-03T12:01:57;96590.41;;;13.60;71.58
57644;BME280;43474;46.510;6.686;2023-04-03T12:04:27;96579.69;;;12.84;65.43
57644;BME280;43474;46.510;6.686;2023-04-03T12:07:00;96591.53;;;12.77;64.92
57644;BME280;43474;46.510;6.686;2023-04-03T12:09:52;96586.34;;;12.65;67.52
57644;BME280;43474;46.510;6.686;2023-04-03T12:15:22;96587.06;;;11.76;65.08
57644;BME280;43474;46.510;6.686;2023-04-03T12:17:48;96584.84;;;11.85;66.46
57644;BME280;43474;46.510;6.686;2023-04-03T12:20:46;96589.53;;;11.95;66.48
57644;BME280;43474;46.510;6.686;2023-04-03T12:23:25;96588.16;;;12.26;72.44
57644;BME280;43474;46.510;6.686;2023-04-03T12:25:51;96576.06;;;12.18;64.77
57644;BME280;43474;46.510;6.686;2023-04-03T12:28:24;96573.75;;;12.22;67.40
57644;BME280;43474;46.510;6.686;2023-04-03T12:30:50;96567.06;;;12.36;69.50
57644;BME280;43474;46.510;6.686;2023-04-03T12:33:26;96561.69;;;12.14;69.15
57644;BME280;43474;46.510;6.686;2023-04-03T12:36:03;96557.16;;;12.31;65.24
57644;BME280;43474;46.510;6.686;2023-04-03T12:44:01;96533.16;;;12.26;67.22
57644;BME280;43474;46.510;6.686;2023-04-03T12:46:42;96554.56;;;12.53;68.58
57644;BME280;43474;46.510;6.686;2023-04-03T12:49:22;96551.38;;;12.18;68.76
57644;BME280;43474;46.510;6.686;2023-04-03T12:51:50;96554.50;;;11.81;68.85
57644;BME280;43474;46.510;6.686;2023-04-03T12:54:35;96563.41;;;11.75;68.37
57644;BME280;43474;46.510;6.686;2023-04-03T12:57:24;96560.25;;;11.78;67.92
57644;BME280;43474;46.510;6.686;2023-04-03T12:59:50;96556.44;;;12.02;68.84
57644;BME280;43474;46.510;6.686;2023-04-03T13:02:29;96551.38;;;12.01;71.88
57644;BME280;43474;46.510;6.686;2023-04-03T13:05:09;96557.72;;;11.83;65.81
57644;BME280;43474;46.510;6.686;2023-04-03T13:07:36;96544.97;;;11.51;65.56
57644;BME280;43474;46.510;6.686;2023-04-03T13:12:34;96532.41;;;11.63;66.36
57644;BME280;43474;46.510;6.686;2023-04-03T13:15:03;96526.34;;;11.97;69.28
57644;BME280;43474;46.510;6.686;2023-04-03T13:17:39;96521.75;;;12.09;71.68
57644;BME280;43474;46.510;6.686;2023-04-03T13:20:17;96527.63;;;12.11;68.35
57644;BME280;43474;46.510;6.686;2023-04-03T13:23:04;96519.63;;;11.77;69.41
57644;BME280;43474;46.510;6.686;2023-04-03T13:25:35;96529.00;;;11.97;64.59
57644;BME280;43474;46.510;6.686;2023-04-03T13:28:05;96527.06;;;11.92;67.94
57644;BME280;43474;46.510;6.686;2023-04-03T13:30:37;96514.91;;;12.13;67.19
57644;BME280;43474;46.510;6.686;2023-04-03T13:33:20;96510.88;;;12.10;68.24
57644;BME280;43474;46.510;6.686;2023-04-03T13:35:46;96516.00;;;11.67;69.43
57644;BME280;43474;46.510;6.686;2023-04-03T13:40:53;96524.88;;;11.72;68.39
57644;BME280;43474;46.510;6.686;2023-04-03T13:43:35;96516.44;;;11.75;66.09
57644;BME280;43474;46.510;6.686;2023-04-03T13:48:44;96525.19;;;11.59;71.82
57644;BME280;43474;46.510;6.686;2023-04-03T13:53:44;96523.34;;;11.14;67.46
57644;BME280;43474;46.510;6.686;2023-04-03T13:56:21;96509.63;;;10.77;70.13
57644;BME280;43474;46.510;6.686;2023-04-03T14:01:49;96532.53;;;10.95;71.45
57644;BME280;43474;46.510;6.686;2023-04-03T14:04:22;96506.78;;;10.67;71.41
57644;BME280;43474;46.510;6.686;2023-04-03T14:06:48;96509.25;;;10.45;73.51
57644;BME280;43474;46.510;6.686;2023-04-03T14:09:16;96501.53;;;10.20;70.34
57644;BME280;43474;46.510;6.686;2023-04-03T14:11:42;96513.03;;;10.60;72.54
57644;BME280;43474;46.510;6.686;2023-04-03T14:14:22;96494.78;;;10.64;74.29
57644;BME280;43474;46.510;6.686;2023-04-03T14:16:53;96506.78;;;10.67;71.49
57644;BME280;43474;46.510;6.686;2023-04-03T14:19:39;96499.97;;;10.71;68.41
57644;BME280;43474;46.510;6.686;2023-04-03T14:24:47;96483.59;;;10.10;74.00
57644;BME280;43474;46.510;6.686;2023-04-03T14:29:46;96471.94;;;10.23;71.00
57644;BME280;43474;46.510;6.686;2023-04-03T14:32:14;96485.19;;;10.34;73.36
57644;BME280;43474;46.510;6.686;2023-04-03T14:34:42;96475.50;;;10.17;69.11
57644;BME280;43474;46.510;6.686;2023-04-03T14:37:14;96479.44;;;10.02;70.67